sensor_id;sensor_type;location;lat;lon;timestamp;P1;durP1;ratioP1;P2;durP2;ratioP2
37425;SDS011;23285;50.180;7.036;2022-12-29T00:00:05;4.00;;;2.00;;
37425;SDS011;23285;50.180;7.036;2022-12-29T00:03:00;2.17;;;1.93;;
37425;SDS011;23285;50.180;7.036;2022-12-29T00:05:53;2.47;;;2.03;;
37425;SDS011;23285;50.180;7.036;2022-12-29T00:08:40;4.80;;;3.10;;
37425;SDS011;23285;50.180;7.036;2022-12-29T00:11:26;2.10;;;1.90;;
37425;SDS011;23285;50.180;7.036;2022-12-29T00:14:13;2.03;;;1.83;;
37425;SDS011;23285;50.180;7.036;2022-12-29T00:17:17;1.80;;;1.60;;
37425;SDS011;23285;50.180;7.036;2022-12-29T00:20:05;2.27;;;1.90;;
37425;SDS011;23285;50.180;7.036;2022-12-29T00:23:09;1.63;;;1.53;;
37425;SDS011;23285;50.180;7.036;2022-12-29T00:26:13;2.83;;;1.83;;
37425;SDS011;23285;50.180;7.036;2022-12-29T00:29:18;2.03;;;1.60;;
37425;SDS011;23285;50.180;7.036;2022-12-29T00:32:22;1.93;;;1.83;;
37425;SDS011;23285;50.180;7.036;2022-12-29T00:35:28;3.20;;;1.70;;
37425;SDS011;23285;50.180;7.036;2022-12-29T00:38:15;1.47;;;1.33;;
37425;SDS011;23285;50.180;7.036;2022-12-29T00:41:19;2.77;;;1.53;;
37425;SDS011;23285;50.180;7.036;2022-12-29T00:44:22;1.83;;;1.60;;
37425;SDS011;23285;50.180;7.036;2022-12-29T00:47:09;2.20;;;1.57;;
37425;SDS011;23285;50.180;7.036;2022-12-29T00:49:55;1.90;;;1.50;;
37425;SDS011;23285;50.180;7.036;2022-12-29T00:52:42;2.70;;;1.53;;
37425;SDS011;23285;50.180;7.036;2022-12-29T00:55:29;2.50;;;1.47;;
37425;SDS011;23285;50.180;7.036;2022-12-29T00:58:15;1.50;;;1.40;;
37425;SDS011;23285;50.180;7.036;2022-12-29T01:01:01;1.77;;;1.50;;
37425;SDS011;23285;50.180;7.036;2022-12-29T01:03:48;1.77;;;1.30;;
37425;SDS011;23285;50.180;7.036;2022-12-29T01:06:38;2.10;;;1.43;;
37425;SDS011;23285;50.180;7.036;2022-12-29T01:09:27;1.53;;;1.43;;
37425;SDS011;23285;50.180;7.036;2022-12-29T01:12:32;1.90;;;1.43;;
37425;SDS011;23285;50.180;7.036;2022-12-29T01:15:36;3.17;;;1.40;;
37425;SDS011;23285;50.180;7.036;2022-12-29T01:18:23;1.70;;;1.60;;
37425;SDS011;23285;50.180;7.036;2022-12-29T01:21:10;2.03;;;1.47;;
37425;SDS011;23285;50.180;7.036;2022-12-29T01:23:57;1.27;;;1.17;;
37425;SDS011;23285;50.180;7.036;2022-12-29T01:26:45;1.63;;;1.40;;
37425;SDS011;23285;50.180;7.036;2022-12-29T01:29:35;3.03;;;1.50;;
37425;SDS011;23285;50.180;7.036;2022-12-29T01:32:23;1.70;;;1.40;;
37425;SDS011;23285;50.180;7.036;2022-12-29T01:35:10;2.77;;;2.17;;
37425;SDS011;23285;50.180;7.036;2022-12-29T01:37:56;2.80;;;1.50;;
37425;SDS011;23285;50.180;7.036;2022-12-29T01:40:43;2.13;;;1.67;;
37425;SDS011;23285;50.180;7.036;2022-12-29T01:43:39;1.60;;;1.50;;
37425;SDS011;23285;50.180;7.036;2022-12-29T01:46:28;1.53;;;1.43;;
37425;SDS011;23285;50.180;7.036;2022-12-29T01:49:18;1.60;;;1.50;;
37425;SDS011;23285;50.180;7.036;2022-12-29T01:52:07;2.80;;;1.73;;
37425;SDS011;23285;50.180;7.036;2022-12-29T01:54:53;2.23;;;1.40;;
37425;SDS011;23285;50.180;7.036;2022-12-29T01:57:42;1.47;;;1.37;;
37425;SDS011;23285;50.180;7.036;2022-12-29T02:00:33;1.47;;;1.30;;
37425;SDS011;23285;50.180;7.036;2022-12-29T02:03:19;3.40;;;1.93;;
37425;SDS011;23285;50.180;7.036;2022-12-29T02:06:10;3.47;;;1.97;;
37425;SDS011;23285;50.180;7.036;2022-12-29T02:09:00;1.50;;;1.40;;
37425;SDS011;23285;50.180;7.036;2022-12-29T02:11:47;8.20;;;6.13;;
37425;SDS011;23285;50.180;7.036;2022-12-29T02:14:35;3.80;;;2.00;;
37425;SDS011;23285;50.180;7.036;2022-12-29T02:17:25;2.40;;;1.70;;
37425;SDS011;23285;50.180;7.036;2022-12-29T02:20:42;2.60;;;1.60;;
37425;SDS011;23285;50.180;7.036;2022-12-29T02:24:04;2.80;;;1.60;;
37425;SDS011;23285;50.180;7.036;2022-12-29T02:27:06;1.80;;;1.40;;
37425;SDS011;23285;50.180;7.036;2022-12-29T02:30:39;2.00;;;1.40;;
37425;SDS011;23285;50.180;7.036;2022-12-29T02:33:31;3.90;;;1.47;;
37425;SDS011;23285;50.180;7.036;2022-12-29T02:36:31;1.73;;;1.50;;
37425;SDS011;23285;50.180;7.036;2022-12-29T02:39:21;2.63;;;1.60;;
37425;SDS011;23285;50.180;7.036;2022-12-29T02:42:19;2.37;;;2.17;;
37425;SDS011;23285;50.180;7.036;2022-12-29T02:45:09;1.97;;;1.40;;
37425;SDS011;23285;50.180;7.036;2022-12-29T02:48:03;1.27;;;1.20;;
37425;SDS011;23285;50.180;7.036;2022-12-29T02:50:56;1.83;;;1.73;;
37425;SDS011;23285;50.180;7.036;2022-12-29T02:53:46;1.73;;;1.50;;
37425;SDS011;23285;50.180;7.036;2022-12-29T02:56:50;3.53;;;2.90;;
37425;SDS011;23285;50.180;7.036;2022-12-29T02:59:36;1.90;;;1.60;;
37425;SDS011;23285;50.180;7.036;2022-12-29T03:02:30;3.60;;;1.90;;
37425;SDS011;23285;50.180;7.036;2022-12-29T03:05:22;2.83;;;1.97;;
37425;SDS011;23285;50.180;7.036;2022-12-29T03:08:13;3.37;;;2.20;;
37425;SDS011;23285;50.180;7.036;2022-12-29T03:11:04;5.10;;;2.20;;
37425;SDS011;23285;50.180;7.036;2022-12-29T03:14:13;2.37;;;2.10;;
37425;SDS011;23285;50.180;7.036;2022-12-29T03:17:23;3.67;;;2.50;;
37425;SDS011;23285;50.180;7.036;2022-12-29T03:20:16;7.00;;;2.70;;
37425;SDS011;23285;50.180;7.036;2022-12-29T03:23:07;5.97;;;2.67;;
37425;SDS011;23285;50.180;7.036;2022-12-29T03:25:55;5.23;;;2.40;;
37425;SDS011;23285;50.180;7.036;2022-12-29T03:28:44;5.83;;;2.50;;
37425;SDS011;23285;50.180;7.036;2022-12-29T03:31:37;32.80;;;19.87;;
37425;SDS011;23285;50.180;7.036;2022-12-29T03:34:25;6.43;;;2.30;;
37425;SDS011;23285;50.180;7.036;2022-12-29T03:37:14;3.53;;;2.53;;
37425;SDS011;23285;50.180;7.036;2022-12-29T03:40:04;3.40;;;1.93;;
37425;SDS011;23285;50.180;7.036;2022-12-29T03:42:51;5.37;;;2.23;;
37425;SDS011;23285;50.180;7.036;2022-12-29T03:45:40;7.80;;;2.57;;
37425;SDS011;23285;50.180;7.036;2022-12-29T03:48:27;5.10;;;2.60;;
37425;SDS011;23285;50.180;7.036;2022-12-29T03:51:14;3.20;;;2.20;;
37425;SDS011;23285;50.180;7.036;2022-12-29T03:54:00;7.43;;;3.03;;
37425;SDS011;23285;50.180;7.036;2022-12-29T03:56:48;5.37;;;3.07;;
37425;SDS011;23285;50.180;7.036;2022-12-29T03:59:41;5.90;;;2.80;;
37425;SDS011;23285;50.180;7.036;2022-12-29T04:02:27;4.50;;;2.73;;
37425;SDS011;23285;50.180;7.036;2022-12-29T04:05:14;4.67;;;2.80;;
37425;SDS011;23285;50.180;7.036;2022-12-29T04:08:00;4.73;;;3.07;;
37425;SDS011;23285;50.180;7.036;2022-12-29T04:10:47;5.40;;;2.60;;
37425;SDS011;23285;50.180;7.036;2022-12-29T04:13:37;6.20;;;2.70;;
37425;SDS011;23285;50.180;7.036;2022-12-29T04:16:26;9.70;;;3.07;;
37425;SDS011;23285;50.180;7.036;2022-12-29T04:19:12;6.57;;;3.47;;
37425;SDS011;23285;50.180;7.036;2022-12-29T04:22:00;5.10;;;2.50;;
37425;SDS011;23285;50.180;7.036;2022-12-29T04:24:47;4.30;;;2.67;;
37425;SDS011;23285;50.180;7.036;2022-12-29T04:27:33;3.93;;;2.80;;
37425;SDS011;23285;50.180;7.036;2022-12-29T04:30:39;3.03;;;2.17;;
37425;SDS011;23285;50.180;7.036;2022-12-29T04:33:45;16.43;;;11.53;;
37425;SDS011;23285;50.180;7.036;2022-12-29T04:36:32;5.00;;;2.70;;
37425;SDS011;23285;50.180;7.036;2022-12-29T04:39:19;4.57;;;2.40;;
37425;SDS011;23285;50.180;7.036;2022-12-29T04:42:06;4.13;;;2.40;;
37425;SDS011;23285;50.180;7.036;2022-12-29T04:44:52;5.57;;;2.80;;
37425;SDS011;23285;50.180;7.036;2022-12-29T04:47:59;6.93;;;2.40;;
37425;SDS011;23285;50.180;7.036;2022-12-29T04:51:07;5.33;;;3.07;;
37425;SDS011;23285;50.180;7.036;2022-12-29T04:53:56;3.13;;;2.10;;
37425;SDS011;23285;50.180;7.036;2022-12-29T04:56:44;2.53;;;2.23;;
37425;SDS011;23285;50.180;7.036;2022-12-29T04:59:33;3.90;;;3.10;;
37425;SDS011;23285;50.180;7.036;2022-12-29T05:02:20;6.27;;;2.40;;
37425;SDS011;23285;50.180;7.036;2022-12-29T05:05:09;4.93;;;2.30;;
37425;SDS011;23285;50.180;7.036;2022-12-29T05:07:59;2.90;;;2.33;;
37425;SDS011;23285;50.180;7.036;2022-12-29T05:10:46;3.73;;;2.20;;
37425;SDS011;23285;50.180;7.036;2022-12-29T05:13:35;4.17;;;2.43;;
37425;SDS011;23285;50.180;7.036;2022-12-29T05:16:22;5.13;;;2.43;;
37425;SDS011;23285;50.180;7.036;2022-12-29T05:19:08;3.50;;;2.33;;
37425;SDS011;23285;50.180;7.036;2022-12-29T05:21:56;5.10;;;3.90;;
37425;SDS011;23285;50.180;7.036;2022-12-29T05:24:43;5.53;;;2.57;;
37425;SDS011;23285;50.180;7.036;2022-12-29T05:27:29;2.87;;;2.33;;
37425;SDS011;23285;50.180;7.036;2022-12-29T05:30:28;4.63;;;2.33;;
37425;SDS011;23285;50.180;7.036;2022-12-29T05:33:15;3.10;;;2.03;;
37425;SDS011;23285;50.180;7.036;2022-12-29T05:36:03;6.13;;;2.67;;
37425;SDS011;23285;50.180;7.036;2022-12-29T05:38:52;4.80;;;2.30;;
37425;SDS011;23285;50.180;7.036;2022-12-29T05:41:38;5.40;;;2.00;;
37425;SDS011;23285;50.180;7.036;2022-12-29T05:44:56;5.13;;;2.40;;
37425;SDS011;23285;50.180;7.036;2022-12-29T05:48:03;3.97;;;2.00;;
37425;SDS011;23285;50.180;7.036;2022-12-29T05:51:10;5.00;;;2.43;;
37425;SDS011;23285;50.180;7.036;2022-12-29T05:54:06;6.27;;;2.60;;
37425;SDS011;23285;50.180;7.036;2022-12-29T05:56:52;5.43;;;2.43;;
37425;SDS011;23285;50.180;7.036;2022-12-29T05:59:39;4.57;;;2.20;;
37425;SDS011;23285;50.180;7.036;2022-12-29T06:02:25;4.57;;;2.50;;
37425;SDS011;23285;50.180;7.036;2022-12-29T06:05:12;5.00;;;2.20;;
37425;SDS011;23285;50.180;7.036;2022-12-29T06:07:58;5.53;;;3.03;;
37425;SDS011;23285;50.180;7.036;2022-12-29T06:10:47;4.17;;;1.70;;
37425;SDS011;23285;50.180;7.036;2022-12-29T06:13:33;2.93;;;2.10;;
37425;SDS011;23285;50.180;7.036;2022-12-29T06:16:20;4.27;;;1.70;;
37425;SDS011;23285;50.180;7.036;2022-12-29T06:19:11;2.80;;;1.70;;
37425;SDS011;23285;50.180;7.036;2022-12-29T06:21:58;2.83;;;2.10;;
37425;SDS011;23285;50.180;7.036;2022-12-29T06:24:46;1.70;;;1.47;;
37425;SDS011;23285;50.180;7.036;2022-12-29T06:27:33;1.17;;;1.17;;
37425;SDS011;23285;50.180;7.036;2022-12-29T06:30:20;2.20;;;1.47;;
37425;SDS011;23285;50.180;7.036;2022-12-29T06:33:06;1.80;;;1.20;;
37425;SDS011;23285;50.180;7.036;2022-12-29T06:35:53;1.63;;;1.27;;
37425;SDS011;23285;50.180;7.036;2022-12-29T06:38:39;2.43;;;1.43;;
37425;SDS011;23285;50.180;7.036;2022-12-29T06:41:25;14.07;;;9.57;;
37425;SDS011;23285;50.180;7.036;2022-12-29T06:44:36;2.00;;;1.40;;
37425;SDS011;23285;50.180;7.036;2022-12-29T06:47:27;1.50;;;1.40;;
37425;SDS011;23285;50.180;7.036;2022-12-29T06:50:13;1.77;;;1.43;;
37425;SDS011;23285;50.180;7.036;2022-12-29T06:53:00;1.57;;;1.47;;
37425;SDS011;23285;50.180;7.036;2022-12-29T06:55:46;3.53;;;1.90;;
37425;SDS011;23285;50.180;7.036;2022-12-29T06:58:32;8.70;;;2.23;;
37425;SDS011;23285;50.180;7.036;2022-12-29T07:01:20;5.27;;;2.43;;
37425;SDS011;23285;50.180;7.036;2022-12-29T07:04:09;4.43;;;2.23;;
37425;SDS011;23285;50.180;7.036;2022-12-29T07:06:56;2.60;;;1.30;;
37425;SDS011;23285;50.180;7.036;2022-12-29T07:09:42;1.53;;;1.30;;
37425;SDS011;23285;50.180;7.036;2022-12-29T07:12:29;1.13;;;0.90;;
37425;SDS011;23285;50.180;7.036;2022-12-29T07:15:15;0.80;;;0.80;;
37425;SDS011;23285;50.180;7.036;2022-12-29T07:18:03;0.60;;;0.60;;
37425;SDS011;23285;50.180;7.036;2022-12-29T07:20:50;1.83;;;1.10;;
37425;SDS011;23285;50.180;7.036;2022-12-29T07:23:36;0.60;;;0.60;;
37425;SDS011;23285;50.180;7.036;2022-12-29T07:26:23;0.60;;;0.60;;
37425;SDS011;23285;50.180;7.036;2022-12-29T07:29:09;1.30;;;1.17;;
37425;SDS011;23285;50.180;7.036;2022-12-29T07:31:55;0.67;;;0.67;;
37425;SDS011;23285;50.180;7.036;2022-12-29T07:34:43;1.70;;;0.80;;
37425;SDS011;23285;50.180;7.036;2022-12-29T07:37:31;3.30;;;0.80;;
37425;SDS011;23285;50.180;7.036;2022-12-29T07:40:18;1.07;;;0.60;;
37425;SDS011;23285;50.180;7.036;2022-12-29T07:43:05;2.80;;;0.90;;
37425;SDS011;23285;50.180;7.036;2022-12-29T07:45:58;1.87;;;0.70;;
37425;SDS011;23285;50.180;7.036;2022-12-29T07:48:46;0.77;;;0.50;;
37425;SDS011;23285;50.180;7.036;2022-12-29T07:51:34;0.93;;;0.60;;
37425;SDS011;23285;50.180;7.036;2022-12-29T07:54:20;2.20;;;1.03;;
37425;SDS011;23285;50.180;7.036;2022-12-29T07:57:06;0.80;;;0.70;;
37425;SDS011;23285;50.180;7.036;2022-12-29T07:59:53;2.57;;;0.67;;
37425;SDS011;23285;50.180;7.036;2022-12-29T08:02:39;0.83;;;0.60;;
37425;SDS011;23285;50.180;7.036;2022-12-29T08:05:26;1.77;;;0.60;;
37425;SDS011;23285;50.180;7.036;2022-12-29T08:08:13;1.13;;;0.63;;
37425;SDS011;23285;50.180;7.036;2022-12-29T08:11:00;2.27;;;1.00;;
37425;SDS011;23285;50.180;7.036;2022-12-29T08:13:46;3.03;;;0.80;;
37425;SDS011;23285;50.180;7.036;2022-12-29T08:16:33;2.03;;;0.87;;
37425;SDS011;23285;50.180;7.036;2022-12-29T08:19:19;2.53;;;1.00;;
37425;SDS011;23285;50.180;7.036;2022-12-29T08:22:05;3.73;;;1.43;;
37425;SDS011;23285;50.180;7.036;2022-12-29T08:24:53;3.33;;;1.00;;
37425;SDS011;23285;50.180;7.036;2022-12-29T08:27:39;1.37;;;0.87;;
37425;SDS011;23285;50.180;7.036;2022-12-29T08:30:25;1.73;;;0.73;;
37425;SDS011;23285;50.180;7.036;2022-12-29T08:33:11;4.03;;;1.10;;
37425;SDS011;23285;50.180;7.036;2022-12-29T08:35:59;1.63;;;1.00;;
37425;SDS011;23285;50.180;7.036;2022-12-29T08:38:45;1.67;;;1.03;;
37425;SDS011;23285;50.180;7.036;2022-12-29T08:41:33;1.90;;;0.93;;
37425;SDS011;23285;50.180;7.036;2022-12-29T08:44:19;2.50;;;1.17;;
37425;SDS011;23285;50.180;7.036;2022-12-29T08:47:06;2.53;;;1.20;;
37425;SDS011;23285;50.180;7.036;2022-12-29T08:49:54;1.40;;;1.10;;
37425;SDS011;23285;50.180;7.036;2022-12-29T08:52:40;1.50;;;0.93;;
37425;SDS011;23285;50.180;7.036;2022-12-29T08:55:27;2.53;;;1.30;;
37425;SDS011;23285;50.180;7.036;2022-12-29T08:58:15;1.37;;;0.87;;
37425;SDS011;23285;50.180;7.036;2022-12-29T09:01:03;3.40;;;1.27;;
37425;SDS011;23285;50.180;7.036;2022-12-29T09:03:50;2.87;;;1.10;;
37425;SDS011;23285;50.180;7.036;2022-12-29T09:06:38;2.50;;;1.20;;
37425;SDS011;23285;50.180;7.036;2022-12-29T09:09:25;2.40;;;1.20;;
37425;SDS011;23285;50.180;7.036;2022-12-29T09:12:11;4.13;;;1.53;;
37425;SDS011;23285;50.180;7.036;2022-12-29T09:14:59;3.90;;;1.20;;
37425;SDS011;23285;50.180;7.036;2022-12-29T09:17:45;2.93;;;1.60;;
37425;SDS011;23285;50.180;7.036;2022-12-29T09:20:32;3.37;;;1.40;;
37425;SDS011;23285;50.180;7.036;2022-12-29T09:23:18;3.70;;;1.23;;
37425;SDS011;23285;50.180;7.036;2022-12-29T09:26:04;2.10;;;1.00;;
37425;SDS011;23285;50.180;7.036;2022-12-29T09:28:51;2.17;;;1.00;;
37425;SDS011;23285;50.180;7.036;2022-12-29T09:31:39;3.67;;;1.10;;
37425;SDS011;23285;50.180;7.036;2022-12-29T09:34:26;3.03;;;0.90;;
37425;SDS011;23285;50.180;7.036;2022-12-29T09:37:12;3.63;;;1.30;;
37425;SDS011;23285;50.180;7.036;2022-12-29T09:39:59;2.03;;;0.90;;
37425;SDS011;23285;50.180;7.036;2022-12-29T09:42:45;2.07;;;1.30;;
37425;SDS011;23285;50.180;7.036;2022-12-29T09:45:40;3.17;;;1.23;;
37425;SDS011;23285;50.180;7.036;2022-12-29T09:48:30;5.27;;;1.70;;
37425;SDS011;23285;50.180;7.036;2022-12-29T09:51:21;11.67;;;5.50;;
37425;SDS011;23285;50.180;7.036;2022-12-29T09:54:15;6.33;;;1.40;;
37425;SDS011;23285;50.180;7.036;2022-12-29T09:57:13;2.37;;;1.27;;
37425;SDS011;23285;50.180;7.036;2022-12-29T10:00:03;8.37;;;1.67;;
37425;SDS011;23285;50.180;7.036;2022-12-29T10:02:58;4.37;;;0.97;;
37425;SDS011;23285;50.180;7.036;2022-12-29T10:05:48;3.97;;;1.50;;
37425;SDS011;23285;50.180;7.036;2022-12-29T10:08:37;9.87;;;2.30;;
37425;SDS011;23285;50.180;7.036;2022-12-29T10:11:29;6.73;;;1.40;;
37425;SDS011;23285;50.180;7.036;2022-12-29T10:14:33;4.20;;;1.50;;
37425;SDS011;23285;50.180;7.036;2022-12-29T10:17:27;7.53;;;1.57;;
37425;SDS011;23285;50.180;7.036;2022-12-29T10:20:19;4.47;;;1.47;;
37425;SDS011;23285;50.180;7.036;2022-12-29T10:23:19;4.13;;;1.20;;
37425;SDS011;23285;50.180;7.036;2022-12-29T10:26:08;4.83;;;1.10;;
37425;SDS011;23285;50.180;7.036;2022-12-29T10:29:02;8.90;;;1.40;;
37425;SDS011;23285;50.180;7.036;2022-12-29T10:31:50;3.00;;;1.20;;
37425;SDS011;23285;50.180;7.036;2022-12-29T10:34:41;5.07;;;1.40;;
37425;SDS011;23285;50.180;7.036;2022-12-29T10:37:30;3.77;;;1.50;;
37425;SDS011;23285;50.180;7.036;2022-12-29T10:40:22;5.60;;;1.63;;
37425;SDS011;23285;50.180;7.036;2022-12-29T10:43:16;7.07;;;1.80;;
37425;SDS011;23285;50.180;7.036;2022-12-29T10:46:09;4.40;;;1.70;;
37425;SDS011;23285;50.180;7.036;2022-12-29T10:48:59;5.53;;;1.80;;
37425;SDS011;23285;50.180;7.036;2022-12-29T10:51:46;6.90;;;1.70;;
37425;SDS011;23285;50.180;7.036;2022-12-29T10:54:37;4.33;;;1.67;;
37425;SDS011;23285;50.180;7.036;2022-12-29T10:57:27;6.70;;;2.13;;
37425;SDS011;23285;50.180;7.036;2022-12-29T11:00:19;7.30;;;1.90;;
37425;SDS011;23285;50.180;7.036;2022-12-29T11:03:20;6.10;;;1.70;;
37425;SDS011;23285;50.180;7.036;2022-12-29T11:06:29;6.53;;;1.70;;
37425;SDS011;23285;50.180;7.036;2022-12-29T11:09:19;3.70;;;1.40;;
37425;SDS011;23285;50.180;7.036;2022-12-29T11:12:21;7.13;;;1.77;;
37425;SDS011;23285;50.180;7.036;2022-12-29T11:15:14;8.23;;;2.40;;
37425;SDS011;23285;50.180;7.036;2022-12-29T11:18:01;6.63;;;1.37;;
37425;SDS011;23285;50.180;7.036;2022-12-29T11:20:47;8.00;;;1.67;;
37425;SDS011;23285;50.180;7.036;2022-12-29T11:23:35;6.60;;;1.83;;
37425;SDS011;23285;50.180;7.036;2022-12-29T11:26:23;7.03;;;2.07;;
37425;SDS011;23285;50.180;7.036;2022-12-29T11:29:17;9.83;;;2.10;;
37425;SDS011;23285;50.180;7.036;2022-12-29T11:32:11;4.67;;;1.77;;
37425;SDS011;23285;50.180;7.036;2022-12-29T11:35:03;8.57;;;2.20;;
37425;SDS011;23285;50.180;7.036;2022-12-29T11:37:53;8.23;;;1.90;;
37425;SDS011;23285;50.180;7.036;2022-12-29T11:40:43;6.77;;;2.17;;
37425;SDS011;23285;50.180;7.036;2022-12-29T11:43:30;6.77;;;1.77;;
37425;SDS011;23285;50.180;7.036;2022-12-29T11:46:18;10.57;;;2.37;;
37425;SDS011;23285;50.180;7.036;2022-12-29T11:49:10;10.60;;;1.97;;
37425;SDS011;23285;50.180;7.036;2022-12-29T11:51:59;8.40;;;2.47;;
37425;SDS011;23285;50.180;7.036;2022-12-29T11:54:46;7.97;;;1.80;;
37425;SDS011;23285;50.180;7.036;2022-12-29T11:57:32;8.20;;;1.53;;
37425;SDS011;23285;50.180;7.036;2022-12-29T12:00:20;10.87;;;1.93;;
37425;SDS011;23285;50.180;7.036;2022-12-29T12:03:10;10.43;;;2.23;;
37425;SDS011;23285;50.180;7.036;2022-12-29T12:06:02;5.13;;;1.83;;
37425;SDS011;23285;50.180;7.036;2022-12-29T12:08:53;9.00;;;1.90;;
37425;SDS011;23285;50.180;7.036;2022-12-29T12:11:42;6.63;;;2.07;;
37425;SDS011;23285;50.180;7.036;2022-12-29T12:14:30;6.17;;;2.10;;
37425;SDS011;23285;50.180;7.036;2022-12-29T12:17:31;6.63;;;2.10;;
37425;SDS011;23285;50.180;7.036;2022-12-29T12:20:24;7.67;;;1.93;;
37425;SDS011;23285;50.180;7.036;2022-12-29T12:23:22;7.50;;;1.83;;
37425;SDS011;23285;50.180;7.036;2022-12-29T12:26:18;8.43;;;1.80;;
37425;SDS011;23285;50.180;7.036;2022-12-29T12:29:08;8.37;;;2.13;;
37425;SDS011;23285;50.180;7.036;2022-12-29T12:32:01;9.03;;;2.10;;
37425;SDS011;23285;50.180;7.036;2022-12-29T12:34:54;7.00;;;2.43;;
37425;SDS011;23285;50.180;7.036;2022-12-29T12:37:47;11.37;;;2.23;;
37425;SDS011;23285;50.180;7.036;2022-12-29T12:40:49;5.00;;;1.60;;
37425;SDS011;23285;50.180;7.036;2022-12-29T12:43:51;9.33;;;1.90;;
37425;SDS011;23285;50.180;7.036;2022-12-29T12:46:52;8.90;;;2.20;;
37425;SDS011;23285;50.180;7.036;2022-12-29T12:49:59;7.60;;;2.27;;
37425;SDS011;23285;50.180;7.036;2022-12-29T12:53:09;4.97;;;1.73;;
37425;SDS011;23285;50.180;7.036;2022-12-29T12:59:40;8.77;;;2.13;;
37425;SDS011;23285;50.180;7.036;2022-12-29T13:02:37;7.53;;;1.90;;
37425;SDS011;23285;50.180;7.036;2022-12-29T13:05:29;8.77;;;1.70;;
37425;SDS011;23285;50.180;7.036;2022-12-29T13:08:37;6.77;;;1.80;;
37425;SDS011;23285;50.180;7.036;2022-12-29T13:11:46;8.57;;;2.00;;
37425;SDS011;23285;50.180;7.036;2022-12-29T13:14:45;7.10;;;1.73;;
37425;SDS011;23285;50.180;7.036;2022-12-29T13:17:42;9.07;;;2.07;;
37425;SDS011;23285;50.180;7.036;2022-12-29T13:20:36;7.10;;;2.17;;
37425;SDS011;23285;50.180;7.036;2022-12-29T13:23:29;5.70;;;1.87;;
37425;SDS011;23285;50.180;7.036;2022-12-29T13:26:20;5.87;;;1.80;;
37425;SDS011;23285;50.180;7.036;2022-12-29T13:29:13;8.27;;;1.90;;
37425;SDS011;23285;50.180;7.036;2022-12-29T13:32:09;8.10;;;1.97;;
37425;SDS011;23285;50.180;7.036;2022-12-29T13:35:10;6.67;;;1.87;;
37425;SDS011;23285;50.180;7.036;2022-12-29T13:38:09;8.13;;;2.30;;
37425;SDS011;23285;50.180;7.036;2022-12-29T13:40:59;7.90;;;1.80;;
37425;SDS011;23285;50.180;7.036;2022-12-29T13:43:48;8.13;;;2.30;;
37425;SDS011;23285;50.180;7.036;2022-12-29T13:46:37;9.10;;;1.93;;
37425;SDS011;23285;50.180;7.036;2022-12-29T13:49:27;6.97;;;1.63;;
37425;SDS011;23285;50.180;7.036;2022-12-29T13:52:15;8.00;;;2.00;;
37425;SDS011;23285;50.180;7.036;2022-12-29T13:55:07;6.20;;;1.97;;
37425;SDS011;23285;50.180;7.036;2022-12-29T13:58:08;7.00;;;2.30;;
37425;SDS011;23285;50.180;7.036;2022-12-29T14:01:00;10.00;;;1.70;;
37425;SDS011;23285;50.180;7.036;2022-12-29T14:03:53;11.67;;;2.63;;
37425;SDS011;23285;50.180;7.036;2022-12-29T14:06:42;9.00;;;1.80;;
37425;SDS011;23285;50.180;7.036;2022-12-29T14:12:37;7.57;;;2.00;;
37425;SDS011;23285;50.180;7.036;2022-12-29T14:15:24;8.10;;;1.80;;
37425;SDS011;23285;50.180;7.036;2022-12-29T14:18:12;8.93;;;1.80;;
37425;SDS011;23285;50.180;7.036;2022-12-29T14:21:03;7.23;;;2.13;;
37425;SDS011;23285;50.180;7.036;2022-12-29T14:23:52;8.47;;;2.03;;
37425;SDS011;23285;50.180;7.036;2022-12-29T14:26:39;4.67;;;1.50;;
37425;SDS011;23285;50.180;7.036;2022-12-29T14:29:44;6.57;;;1.80;;
37425;SDS011;23285;50.180;7.036;2022-12-29T14:32:35;7.30;;;1.70;;
37425;SDS011;23285;50.180;7.036;2022-12-29T14:38:36;5.40;;;1.70;;
37425;SDS011;23285;50.180;7.036;2022-12-29T14:41:33;8.00;;;2.33;;
37425;SDS011;23285;50.180;7.036;2022-12-29T14:44:22;6.53;;;1.93;;
37425;SDS011;23285;50.180;7.036;2022-12-29T14:47:11;7.90;;;1.90;;
37425;SDS011;23285;50.180;7.036;2022-12-29T14:50:03;7.03;;;2.10;;
37425;SDS011;23285;50.180;7.036;2022-12-29T14:52:52;5.80;;;1.90;;
37425;SDS011;23285;50.180;7.036;2022-12-29T14:55:40;10.03;;;2.20;;
37425;SDS011;23285;50.180;7.036;2022-12-29T14:58:35;10.60;;;2.30;;
37425;SDS011;23285;50.180;7.036;2022-12-29T15:01:35;7.33;;;2.07;;
37425;SDS011;23285;50.180;7.036;2022-12-29T15:04:27;6.77;;;2.10;;
37425;SDS011;23285;50.180;7.036;2022-12-29T15:07:17;5.53;;;1.97;;
37425;SDS011;23285;50.180;7.036;2022-12-29T15:10:06;9.27;;;2.17;;
37425;SDS011;23285;50.180;7.036;2022-12-29T15:13:02;8.10;;;2.43;;
37425;SDS011;23285;50.180;7.036;2022-12-29T15:15:51;6.70;;;1.70;;
37425;SDS011;23285;50.180;7.036;2022-12-29T15:18:38;7.20;;;1.93;;
37425;SDS011;23285;50.180;7.036;2022-12-29T15:21:27;9.37;;;2.17;;
37425;SDS011;23285;50.180;7.036;2022-12-29T15:24:16;6.07;;;2.10;;
37425;SDS011;23285;50.180;7.036;2022-12-29T15:27:03;8.33;;;1.73;;
37425;SDS011;23285;50.180;7.036;2022-12-29T15:29:55;5.83;;;2.60;;
37425;SDS011;23285;50.180;7.036;2022-12-29T15:32:43;5.10;;;1.90;;
37425;SDS011;23285;50.180;7.036;2022-12-29T15:35:32;9.43;;;2.60;;
37425;SDS011;23285;50.180;7.036;2022-12-29T15:38:21;11.90;;;2.40;;
37425;SDS011;23285;50.180;7.036;2022-12-29T15:41:14;7.53;;;2.17;;
37425;SDS011;23285;50.180;7.036;2022-12-29T15:44:07;9.23;;;2.57;;
37425;SDS011;23285;50.180;7.036;2022-12-29T15:46:55;9.30;;;2.73;;
37425;SDS011;23285;50.180;7.036;2022-12-29T15:49:43;7.03;;;2.77;;
37425;SDS011;23285;50.180;7.036;2022-12-29T15:52:30;6.37;;;2.10;;
37425;SDS011;23285;50.180;7.036;2022-12-29T15:55:19;9.37;;;2.13;;
37425;SDS011;23285;50.180;7.036;2022-12-29T15:58:18;8.83;;;2.37;;
37425;SDS011;23285;50.180;7.036;2022-12-29T16:01:15;10.00;;;2.70;;
37425;SDS011;23285;50.180;7.036;2022-12-29T16:04:04;8.77;;;2.40;;
37425;SDS011;23285;50.180;7.036;2022-12-29T16:06:57;9.77;;;2.97;;
37425;SDS011;23285;50.180;7.036;2022-12-29T16:09:44;10.47;;;3.00;;
37425;SDS011;23285;50.180;7.036;2022-12-29T16:12:32;13.50;;;3.23;;
37425;SDS011;23285;50.180;7.036;2022-12-29T16:15:20;9.67;;;3.10;;
37425;SDS011;23285;50.180;7.036;2022-12-29T16:18:11;8.80;;;2.23;;
37425;SDS011;23285;50.180;7.036;2022-12-29T16:21:14;11.17;;;2.40;;
37425;SDS011;23285;50.180;7.036;2022-12-29T16:24:06;8.27;;;2.43;;
37425;SDS011;23285;50.180;7.036;2022-12-29T16:26:59;10.97;;;2.70;;
37425;SDS011;23285;50.180;7.036;2022-12-29T16:29:53;9.60;;;2.57;;
37425;SDS011;23285;50.180;7.036;2022-12-29T16:32:44;11.77;;;2.63;;
37425;SDS011;23285;50.180;7.036;2022-12-29T16:35:38;9.87;;;2.60;;
37425;SDS011;23285;50.180;7.036;2022-12-29T16:38:30;6.83;;;2.13;;
37425;SDS011;23285;50.180;7.036;2022-12-29T16:41:29;13.70;;;2.83;;
37425;SDS011;23285;50.180;7.036;2022-12-29T16:44:17;9.60;;;2.47;;
37425;SDS011;23285;50.180;7.036;2022-12-29T16:50:10;13.10;;;3.63;;
37425;SDS011;23285;50.180;7.036;2022-12-29T16:52:58;9.57;;;2.67;;
37425;SDS011;23285;50.180;7.036;2022-12-29T16:55:45;11.67;;;3.33;;
37425;SDS011;23285;50.180;7.036;2022-12-29T16:58:34;12.93;;;4.20;;
37425;SDS011;23285;50.180;7.036;2022-12-29T17:01:21;9.80;;;3.50;;
37425;SDS011;23285;50.180;7.036;2022-12-29T17:04:07;10.20;;;2.47;;
37425;SDS011;23285;50.180;7.036;2022-12-29T17:06:54;10.37;;;2.80;;
37425;SDS011;23285;50.180;7.036;2022-12-29T17:09:41;10.67;;;2.43;;
37425;SDS011;23285;50.180;7.036;2022-12-29T17:12:28;13.83;;;2.67;;
37425;SDS011;23285;50.180;7.036;2022-12-29T17:15:18;12.00;;;2.80;;
37425;SDS011;23285;50.180;7.036;2022-12-29T17:18:11;10.57;;;2.80;;
37425;SDS011;23285;50.180;7.036;2022-12-29T17:20:58;12.07;;;2.50;;